Flugwetter Haslital by BIRDWING.ch
alle Angaben ohne Gewähr
code & design by arbyte.ch


Planplatten 2245m
24.04.19  11:4552|117  SO3.9°C63%
24.04.19  11:3044|101  SO4.1°C62%
24.04.19  11:1539|99  SO4.3°C61%
24.04.19  10:4538|74  SSO4.6°C58%
24.04.19  10:1549|104  SSO4.1°C60%
➜ Windstation Planplatten

Meiringen 589m
24.04.19  11:4048|79  OSO19.3°C33%
24.04.19  11:3053|85  OSO19.2°C33%
24.04.19  11:2043|74  OSO19.5°C31%
24.04.19  11:0041|71  OSO19.7°C30%
24.04.19  10:4043|76  OSO20.0°C28%

Brienz 567m
24.04.19  11:4036|58  O
24.04.19  11:3037|61  O
24.04.19  11:2035|55  O
24.04.19  11:0030|50  O
24.04.19  10:4015|36  NW

Gütsch ob Andermatt 2283m
24.04.19  11:400|0  N
24.04.19  11:300|0  N
24.04.19  11:200|0  N
24.04.19  11:000|0  N
24.04.19  10:400|0  N

Höhematte Metropole 566m
24.04.19  11:4816|21  WSW17.3°C43%
24.04.19  11:3624|27  WSW16.2°C45%
24.04.19  11:3423|26  WSW16.3°C45%
24.04.19  11:2419|27  WSW15.9°C47%
24.04.19  11:1419|22  W16.0°C47%

Niederhorn 1950m
24.04.19  11:4827|37  SO11.9°C39%
24.04.19  11:4428|41  SSO11.8°C38%
24.04.19  11:3830|41  SO11.3°C38%
24.04.19  11:2824|30  SO10.6°C43%
24.04.19  11:1819|31  SO11.4°C40%

. . . . . . . . .

Bänzlauistock 2528m
24.04.19  11:3062|93  SSO
24.04.19  11:0054|89  SO
24.04.19  10:3056|87  SO
24.04.19  10:0057|81  SO
24.04.19  09:3053|87  SO

Sidelhorn 2733m
24.04.19  11:300|0  N
24.04.19  11:000|0  N
24.04.19  10:300|0  N
24.04.19  10:000|0  N
24.04.19  09:300|0  N

Brienzer Rothorn 2348m
24.04.19  11:3024|54  S
24.04.19  11:0021|49  S
24.04.19  10:3012|39  SSO
24.04.19  10:007|35  SO
24.04.19  09:308|37  OSO

Altdorf 438m
24.04.19  11:4035|59  SO21.5°C32%
24.04.19  11:3034|57  SO20.8°C34%
24.04.19  11:2037|59  SO20.8°C32%
24.04.19  11:0044|66  SO20.7°C33%
24.04.19  10:4047|81  SO20.3°C34%

Chasseral 1599m
24.04.19  11:4018|26  SO11.3°C63%
24.04.19  11:3021|28  SO10.6°C68%
24.04.19  11:2021|29  SO10.5°C69%
24.04.19  11:0024|32  SO10.9°C63%
24.04.19  10:4027|39  SO10.9°C62%

Eggishorn 2893m
24.04.19  11:4031|46  SO-2.4°C99%
24.04.19  11:3030|46  OSO-2.2°C97%
24.04.19  11:2026|38  OSO-2.1°C94%
24.04.19  11:0019|30  OSO-2.2°C95%
24.04.19  10:4023|39  SO-2.0°C95%

Giswil 471m
24.04.19  11:409|24  WSW20.5°C39%
24.04.19  11:307|17  SO19.6°C43%
24.04.19  11:209|26  NNO18.9°C43%
24.04.19  11:002|7  ONO18.2°C43%
24.04.19  10:403|8  S17.4°C43%

Glarus 517m
24.04.19  11:4045|82  OSO20.6°C30%
24.04.19  11:3046|66  OSO20.2°C32%
24.04.19  11:2046|68  OSO20.4°C31%
24.04.19  11:0045|70  OSO20.2°C32%
24.04.19  10:4017|45  OSO20.8°C35%

Gornergrat 3129m
24.04.19  11:4044|83  SO-3.2°C87%
24.04.19  11:3035|72  SO-1.8°C68%
24.04.19  11:2035|68  SO-2.0°C71%
24.04.19  11:0030|64  SO-1.6°C70%
24.04.19  10:4036|59  SSO-2.3°C70%

Grimsel Hospiz 1980m
24.04.19  11:4051|68  SSO3.3°C85%
24.04.19  11:3047|85  S3.7°C79%
24.04.19  11:2046|77  S3.9°C79%
24.04.19  11:0045|69  SSO3.5°C81%
24.04.19  10:4050|63  SSO4.0°C77%

Jungfraujoch 3580m
24.04.19  11:4075|91  SSO-6.2°C97%
24.04.19  11:3076|96  SSO-6.3°C98%
24.04.19  11:2077|93  SSO-6.5°C99%
24.04.19  11:0075|106  SSO-6.1°C97%
24.04.19  10:4080|101  SSO-6.3°C94%

Luzern 454m
24.04.19  11:408|14  NNO19.6°C45%
24.04.19  11:306|11  NNO20.1°C47%
24.04.19  11:205|13  NO19.9°C48%
24.04.19  11:005|14  NNO18.8°C46%
24.04.19  10:409|18  NNO18.1°C48%

Le Moléson 1974m
24.04.19  11:4010|25  SSO9.9°C57%
24.04.19  11:3011|22  S8.8°C56%
24.04.19  11:2013|23  SSO10.1°C47%
24.04.19  11:0018|33  S8.4°C49%
24.04.19  10:4013|22  S8.1°C54%

Napf 1404m
24.04.19  11:404|8  NW13.8°C56%
24.04.19  11:303|6  N14.1°C47%
24.04.19  11:204|11  N12.8°C56%
24.04.19  11:009|16  OSO13.4°C45%
24.04.19  10:409|16  ONO13.3°C52%

Säntis 2502m
24.04.19  11:4046|70  SSW2.7°C66%
24.04.19  11:3036|65  SSO2.6°C70%
24.04.19  11:2034|53  SSO2.1°C74%
24.04.19  11:0025|48  SSW2.3°C73%
24.04.19  10:4030|55  SSW2.7°C69%

Thun 570m
24.04.19  11:409|16  NNW18.8°C48%
24.04.19  11:3010|18  N18.4°C48%
24.04.19  11:207|14  N18.2°C50%
24.04.19  11:005|10  NNW17.9°C50%
24.04.19  10:404|6  NNW16.8°C52%

Titlis 3040m
24.04.19  11:4054|76  SSO-3.0°C87%
24.04.19  11:3052|70  SO-3.1°C91%
24.04.19  11:2048|73  SSO-3.2°C87%
24.04.19  11:0060|90  SSO-3.2°C90%
24.04.19  10:4052|84  SSW-2.3°C75%


QNH Druckwerte vom 24.04.2019 11:40
Interlaken1002.4 hPa
Zürich (SMA)1003.3 hPa
Acquarossa / Comprovasco1012.6 hPa
Locarno/Monti1013.1 hPa
Genève-Cointrin1003.1 hPa

Δ Comprovasco - Interlaken in hPa
24.04.19  11:401012.6 - 1002.4 =10.2
24.04.19  11:301012.5 - 1002.5 =10.0
24.04.19  11:101012.2 - 1002.3 =9.9
24.04.19  10:401011.8 - 1002.3 =9.5
24.04.19  09:401011.0 - 1002.6 =8.4

Δ Locarno - Zürich in hPa
24.04.19  11:401013.1 - 1003.3 =9.8
24.04.19  11:301013.0 - 1003.3 =9.7
24.04.19  11:101013.0 - 1003.2 =9.8
24.04.19  10:401012.7 - 1003.3 =9.4
24.04.19  09:401011.9 - 1003.4 =8.5

Δ Genf - Bodensee in hPa
24.04.19  11:401003.1 - 1003.3 =-0.2
24.04.19  11:301003.2 - 1003.4 =-0.2
24.04.19  11:101003.3 - 1003.4 =-0.1
24.04.19  10:401003.1 - 1003.6 =-0.5
24.04.19  09:401002.4 - 1003.4 =-1.0

Temp Meiringen - Plami in °C/100m
24.04.19  11:4019.3 - 3.9 = 15.40.93
24.04.19  11:1019.7 - 4.7 = 15.00.91
24.04.19  10:4020.0 - 4.1 = 15.90.96

Temp Lehn - Niederhorn in °C/100m
24.04.19  11:4818.5 - 11.9 = 6.60.48
24.04.19  11:3419.2 - 11.5 = 7.70.56
24.04.19  11:1617.4 - 11.4 = 6.00.43

Temp Luzern - Pilatus in °C/100m
24.04.19  11:4019.6 - 8.3 = 11.30.68
24.04.19  11:1019.1 - 8.1 = 11.00.67
24.04.19  10:4018.1 - 7.7 = 10.40.63